Time;durP1;ratioP1;P1;durP2;ratioP2;P2;SDS_P1;SDS_P2;PMS_P1;PMS_P2;Temp;Humidity;BMP_temperature;BMP_pressure;BME280_temperature;BME280_humidity;BME280_pressure;Samples;Min_cycle;Max_cycle;Signal;HPM_P1;HPM_P2
2022/12/19 11:08:00;;;;;;;;;38.33;32.00;;;;;;;;5104173;27;13670;-77
2022/12/19 11:10:38;;;;;;;;;35.00;32.33;;;;;;;;5107332;27;8829;-75
2022/12/19 11:13:21;;;;;;;;;35.00;28.33;;;;;;;;5104251;28;8792;-75
2022/12/19 11:15:47;;;;;;;;;33.33;28.00;;;;;;;;5104860;28;8900;-79
2022/12/19 11:18:13;;;;;;;;;28.67;28.67;;;;;;;;5107950;28;8808;-76
2022/12/19 11:20:38;;;;;;;;;32.00;29.00;;;;;;;;5106871;28;9627;-76
2022/12/19 11:23:04;;;;;;;;;26.50;24.75;;;;;;;;5106975;28;8808;-77
2022/12/19 11:25:35;;;;;;;;;42.00;39.00;;;;;;;;5103577;28;13581;-74
2022/12/19 11:28:03;;;;;;;;;18.50;18.50;;;;;;;;5105871;28;11607;-77
2022/12/19 11:30:32;;;;;;;;;;;;;;;;;;5110030;27;11529;-75
2022/12/19 11:32:57;;;;;;;;;;;;;;;;;;5105778;28;7986;-75
2022/12/19 11:35:22;;;;;;;;;;;;;;;;;;5117139;28;7963;-72
2022/12/19 11:37:47;;;;;;;;;;;;;;;;;;5129070;28;7942;-73
2022/12/19 11:40:12;;;;;;;;;;;;;;;;;;5121343;28;8780;-73
2022/12/19 11:42:37;;;;;;;;;;;;;;;;;;5107664;28;7559;-72
2022/12/19 11:45:02;;;;;;;;;;;;;;;;;;5106461;28;7520;-71
2022/12/19 11:47:27;;;;;;;;;;;;;;;;;;5106184;28;7532;-71
2022/12/19 11:49:52;;;;;;;;;;;;;;;;;;5108589;28;7520;-73
2022/12/19 11:52:18;;;;;;;;;;;;;;;;;;5109012;28;7554;-72
2022/12/19 11:54:43;;;;;;;;;;;;;;;;;;5109405;28;7554;-73
2022/12/19 11:57:08;;;;;;;;;;;;;;;;;;5107862;28;7524;-73
2022/12/19 11:59:33;;;;;;;;;;;;;;;;;;5107264;28;7552;-74
2022/12/19 12:01:58;;;;;;;;;;;;;;;;;;5106124;28;7975;-73
2022/12/19 14:45:34;;;;;;;;;51.00;39.67;;;;;;;;5104728;27;13503;-75
2022/12/19 14:48:00;;;;;;;;;48.67;41.67;;;;;;;;5106407;28;8823;-75
2022/12/19 14:50:26;;;;;;;;;45.00;40.33;;;;;;;;5107961;28;8783;-73
2022/12/19 14:53:12;;;;;;;;;42.67;38.67;;;;;;;;5107569;28;8791;-72
2022/12/19 14:55:38;;;;;;;;;38.33;35.67;;;;;;;;5107291;28;8930;-74
2022/12/19 14:58:09;;;;;;;;;45.33;40.67;;;;;;;;5107748;28;8820;-74
2022/12/19 15:00:42;;;;;;;;;41.33;37.33;;;;;;;;5107849;28;8780;-75
2022/12/19 15:03:08;;;;;;;;;42.00;39.00;;;;;;;;5107155;28;8776;-74
2022/12/19 15:05:33;;;;;;;;;43.67;38.67;;;;;;;;5107437;28;8826;-74
2022/12/19 15:07:59;;;;;;;;;41.67;37.67;;;;;;;;5106292;28;8812;-74
2022/12/19 15:10:26;;;;;;;;;35.00;33.00;;;;;;;;5107495;28;8792;-74
2022/12/19 15:15:39;;;;;;;;;43.67;39.00;;;;;;;;5107338;28;11481;-73
2022/12/19 15:18:19;;;;;;;;;40.00;33.67;;;;;;;;5105811;28;8800;-75
2022/12/19 15:20:51;;;;;;;;;40.00;34.00;;;;;;;;5107182;28;11510;-76
2022/12/19 15:23:18;;;;;;;;;36.67;34.00;;;;;;;;5107014;28;11547;-76
2022/12/19 15:25:43;;;;;;;;;41.00;37.67;;;;;;;;5107069;28;11501;-76
2022/12/19 15:28:13;;;;;;;;;42.00;37.33;;;;;;;;5107178;28;11533;-77
2022/12/19 15:30:39;;;;;;;;;45.33;36.67;;;;;;;;5091949;28;8805;-77
2022/12/19 15:33:10;;;;;;;;;40.67;39.00;;;;;;;;5098084;28;8796;-75
2022/12/19 15:35:36;;;;;;;;;40.33;39.00;;;;;;;;5099166;28;8796;-82
2022/12/19 15:38:01;;;;;;;;;44.33;38.67;;;;;;;;5106531;28;8787;-76
2022/12/19 15:40:26;;;;;;;;;48.00;40.67;;;;;;;;5100689;28;8872;-78
2022/12/19 15:42:53;;;;;;;;;48.67;41.33;;;;;;;;5089540;28;8853;-77
2022/12/19 15:45:19;;;;;;;;;52.67;43.00;;;;;;;;5099485;28;8929;-78
2022/12/19 15:47:46;;;;;;;;;52.00;43.33;;;;;;;;5112331;27;9850;-75
2022/12/19 15:50:19;;;;;;;;;55.33;45.67;;;;;;;;5106756;28;8800;-76
2022/12/19 15:52:45;;;;;;;;;59.00;48.67;;;;;;;;5106852;28;9542;-76
2022/12/19 15:55:15;;;;;;;;;55.00;45.67;;;;;;;;5100306;28;8871;-79
2022/12/19 15:57:42;;;;;;;;;54.67;46.00;;;;;;;;5093041;28;8843;-80
2022/12/19 16:00:15;;;;;;;;;47.67;42.33;;;;;;;;5093220;28;8811;-78
2022/12/19 16:02:41;;;;;;;;;58.67;49.00;;;;;;;;5093099;28;8807;-79
2022/12/19 16:05:08;;;;;;;;;59.00;47.67;;;;;;;;5105070;28;9872;-78
2022/12/19 16:07:33;;;;;;;;;56.67;47.33;;;;;;;;5092341;28;8808;-78
2022/12/19 16:09:58;;;;;;;;;56.33;46.67;;;;;;;;5100587;28;8839;-80
2022/12/19 16:12:26;;;;;;;;;60.33;48.33;;;;;;;;5113350;28;8793;-84
2022/12/19 16:14:57;;;;;;;;;62.33;51.00;;;;;;;;5047424;27;11732;-77
2022/12/19 16:17:23;;;;;;;;;63.67;50.33;;;;;;;;5056592;28;8818;-81
2022/12/19 16:19:49;;;;;;;;;57.00;45.33;;;;;;;;5051235;28;8810;-84
2022/12/19 16:22:24;;;;;;;;;61.67;49.67;;;;;;;;5048097;28;8862;-80
2022/12/19 16:24:50;;;;;;;;;58.33;49.00;;;;;;;;5048538;28;8889;-79
2022/12/19 16:27:18;;;;;;;;;67.33;50.33;;;;;;;;5051290;28;8833;-84
2022/12/19 16:29:44;;;;;;;;;57.67;44.67;;;;;;;;5050865;28;8818;-89
2022/12/19 16:32:12;;;;;;;;;67.00;50.67;;;;;;;;5051208;28;8818;-89
2022/12/19 16:34:37;;;;;;;;;66.00;52.00;;;;;;;;5057026;28;9570;-83
2022/12/19 16:37:02;;;;;;;;;53.67;43.67;;;;;;;;5052574;28;10086;-82
2022/12/19 16:39:28;;;;;;;;;60.33;46.67;;;;;;;;5047444;28;8817;-85
2022/12/19 16:41:53;;;;;;;;;59.00;47.00;;;;;;;;5039561;28;8831;-82
2022/12/19 16:44:20;;;;;;;;;61.00;49.00;;;;;;;;5035607;28;8853;-76
2022/12/19 16:46:46;;;;;;;;;67.67;53.33;;;;;;;;5050105;28;8837;-80
2022/12/19 16:49:12;;;;;;;;;63.33;50.33;;;;;;;;5051872;28;8813;-81
2022/12/19 16:51:38;;;;;;;;;65.00;52.67;;;;;;;;5051709;28;8882;-82
2022/12/19 16:54:03;;;;;;;;;65.00;52.00;;;;;;;;5049526;28;8877;-82
2022/12/19 16:56:30;;;;;;;;;64.67;52.67;;;;;;;;5051575;28;8809;-80
2022/12/19 16:58:57;;;;;;;;;61.00;49.00;;;;;;;;5046325;28;8836;-83
2022/12/19 17:01:23;;;;;;;;;65.67;51.00;;;;;;;;5043616;28;8820;-81
2022/12/19 17:03:48;;;;;;;;;50.67;45.00;;;;;;;;5049651;28;8812;-80
2022/12/19 17:06:14;;;;;;;;;52.00;44.00;;;;;;;;5050607;28;8829;-80
2022/12/19 17:08:40;;;;;;;;;61.33;47.00;;;;;;;;5044031;28;8843;-80
2022/12/19 17:11:11;;;;;;;;;73.67;56.00;;;;;;;;5035191;28;8784;-81
2022/12/19 17:13:37;;;;;;;;;64.33;51.00;;;;;;;;5031203;28;8813;-80
2022/12/19 17:16:03;;;;;;;;;62.00;50.00;;;;;;;;5064212;28;8815;-81
2022/12/19 17:18:33;;;;;;;;;63.33;50.33;;;;;;;;5051158;28;8801;-80
2022/12/19 17:20:58;;;;;;;;;64.67;53.67;;;;;;;;5051262;28;8812;-79
2022/12/19 17:23:24;;;;;;;;;68.67;55.00;;;;;;;;5051135;28;8821;-80
2022/12/19 17:25:51;;;;;;;;;59.00;50.67;;;;;;;;5048702;28;8832;-78
2022/12/19 17:28:16;;;;;;;;;64.67;51.67;;;;;;;;5051008;28;8817;-78
2022/12/19 17:30:43;;;;;;;;;70.00;57.00;;;;;;;;5048937;28;8817;-79
2022/12/19 17:33:15;;;;;;;;;66.00;54.33;;;;;;;;5048373;28;8813;-76
2022/12/19 17:35:41;;;;;;;;;66.00;55.00;;;;;;;;5045711;28;8832;-77
2022/12/19 17:38:09;;;;;;;;;74.33;58.33;;;;;;;;5049179;28;8821;-81
2022/12/19 17:40:34;;;;;;;;;70.67;55.00;;;;;;;;5050801;28;8817;-82
2022/12/19 17:42:59;;;;;;;;;68.00;55.33;;;;;;;;5050272;28;8887;-81
2022/12/19 17:45:28;;;;;;;;;66.33;55.00;;;;;;;;5046231;28;8786;-82
2022/12/19 17:47:54;;;;;;;;;68.33;54.00;;;;;;;;5032905;28;8850;-81
2022/12/19 17:50:25;;;;;;;;;73.00;56.00;;;;;;;;5050749;28;8805;-75
2022/12/19 17:52:51;;;;;;;;;62.00;52.00;;;;;;;;5049027;28;9536;-76
2022/12/19 17:55:21;;;;;;;;;72.67;58.00;;;;;;;;5046743;28;8805;-81
2022/12/19 17:57:46;;;;;;;;;74.33;58.00;;;;;;;;5050387;28;8887;-80
2022/12/19 18:00:12;;;;;;;;;67.33;54.33;;;;;;;;5050568;28;8809;-81
2022/12/19 18:02:38;;;;;;;;;70.00;55.33;;;;;;;;5051042;28;8789;-82
2022/12/19 18:05:04;;;;;;;;;75.33;58.33;;;;;;;;5046747;28;8865;-80
2022/12/19 18:07:30;;;;;;;;;69.33;54.67;;;;;;;;5049860;28;8943;-79
2022/12/19 18:09:56;;;;;;;;;71.33;58.00;;;;;;;;5049045;28;8968;-80
2022/12/19 18:12:21;;;;;;;;;69.33;55.33;;;;;;;;5050310;28;8824;-77
2022/12/19 18:14:46;;;;;;;;;66.00;53.33;;;;;;;;5046429;28;9026;-80
2022/12/19 18:17:14;;;;;;;;;66.00;52.67;;;;;;;;5049911;28;8825;-80
2022/12/19 18:19:39;;;;;;;;;64.00;53.67;;;;;;;;5049813;28;9577;-84
2022/12/19 18:22:10;;;;;;;;;69.67;57.00;;;;;;;;5065274;28;8817;-80
2022/12/19 18:24:35;;;;;;;;;75.00;57.00;;;;;;;;5043514;28;9956;-78
2022/12/19 18:27:00;;;;;;;;;70.67;55.67;;;;;;;;5050094;28;8813;-78
2022/12/19 18:29:26;;;;;;;;;70.00;55.33;;;;;;;;5052458;28;8793;-77
2022/12/19 18:31:51;;;;;;;;;70.33;58.00;;;;;;;;5049190;28;8841;-79
2022/12/19 18:34:18;;;;;;;;;74.33;56.33;;;;;;;;5045188;28;9006;-77
2022/12/19 18:36:43;;;;;;;;;71.00;57.00;;;;;;;;5049475;28;8811;-77
2022/12/19 18:39:19;;;;;;;;;73.67;58.67;;;;;;;;5049954;28;8888;-77
2022/12/19 18:41:44;;;;;;;;;60.00;50.33;;;;;;;;5050066;28;8811;-77
2022/12/19 18:44:09;;;;;;;;;73.67;58.33;;;;;;;;5046073;28;8874;-77
2022/12/19 18:46:37;;;;;;;;;73.33;58.00;;;;;;;;5048331;28;9593;-83
2022/12/19 18:49:02;;;;;;;;;61.67;54.33;;;;;;;;5049602;28;8833;-80
2022/12/19 18:51:28;;;;;;;;;61.33;49.00;;;;;;;;5045804;28;11186;-81
2022/12/19 18:53:53;;;;;;;;;69.00;56.00;;;;;;;;5039494;28;8851;-84
2022/12/19 18:56:18;;;;;;;;;69.00;53.00;;;;;;;;5062470;28;8833;-79
2022/12/19 18:58:44;;;;;;;;;72.00;57.00;;;;;;;;5049782;28;8833;-82
2022/12/19 19:01:11;;;;;;;;;65.67;55.00;;;;;;;;5049959;28;8864;-84
2022/12/19 19:03:37;;;;;;;;;67.33;57.00;;;;;;;;5050004;28;8836;-87
2022/12/19 19:06:04;;;;;;;;;71.67;56.00;;;;;;;;5047006;28;8833;-83
2022/12/19 19:08:31;;;;;;;;;70.33;59.00;;;;;;;;5049393;28;8876;-81
2022/12/19 19:10:57;;;;;;;;;72.67;57.00;;;;;;;;5049854;28;8789;-81
2022/12/19 19:13:24;;;;;;;;;66.00;54.67;;;;;;;;5067894;28;8969;-82
2022/12/19 19:15:57;;;;;;;;;74.00;61.00;;;;;;;;5049016;28;8833;-81
2022/12/19 19:18:24;;;;;;;;;76.33;61.33;;;;;;;;5049529;28;8831;-81
2022/12/19 19:20:52;;;;;;;;;71.00;56.33;;;;;;;;5064599;28;9912;-82
2022/12/19 19:23:19;;;;;;;;;70.67;56.33;;;;;;;;5027666;28;9608;-82
2022/12/19 19:25:45;;;;;;;;;48.67;43.33;;;;;;;;5024656;28;8839;-80
2022/12/19 19:28:10;;;;;;;;;72.00;57.67;;;;;;;;5027395;28;8824;-80
2022/12/19 19:30:36;;;;;;;;;70.33;57.67;;;;;;;;5030912;28;8791;-81
2022/12/19 19:33:08;;;;;;;;;70.67;55.33;;;;;;;;5032104;28;9440;-81
2022/12/19 19:35:33;;;;;;;;;68.00;54.67;;;;;;;;5030308;28;8835;-79
2022/12/19 19:38:01;;;;;;;;;69.00;57.67;;;;;;;;5033207;28;8807;-83
2022/12/19 19:40:26;;;;;;;;;71.67;53.00;;;;;;;;5033272;28;8842;-79
2022/12/19 19:42:51;;;;;;;;;69.00;53.67;;;;;;;;5034417;28;8791;-81
2022/12/19 19:45:16;;;;;;;;;77.33;60.33;;;;;;;;5033153;28;8847;-78
2022/12/19 19:47:42;;;;;;;;;66.67;54.00;;;;;;;;5031892;28;8824;-75
2022/12/19 19:50:07;;;;;;;;;71.67;57.00;;;;;;;;5033555;28;8894;-77
2022/12/19 19:52:33;;;;;;;;;69.33;54.67;;;;;;;;5048392;28;8847;-76
2022/12/19 19:54:58;;;;;;;;;67.67;56.67;;;;;;;;5032377;28;8816;-77
2022/12/19 19:57:23;;;;;;;;;68.67;54.00;;;;;;;;5039650;28;8846;-75
2022/12/19 19:59:49;;;;;;;;;74.67;57.00;;;;;;;;5020502;28;8863;-76
2022/12/19 20:02:14;;;;;;;;;64.00;53.67;;;;;;;;5031393;28;8795;-75
2022/12/19 20:04:39;;;;;;;;;69.00;57.00;;;;;;;;5031567;28;8905;-74
2022/12/19 20:07:05;;;;;;;;;66.33;55.00;;;;;;;;5031045;28;8804;-75
2022/12/19 20:09:30;;;;;;;;;67.33;53.00;;;;;;;;5031413;28;8919;-73
2022/12/19 20:11:55;;;;;;;;;105.50;85.75;;;;;;;;5031631;28;8792;-75
2022/12/19 20:14:21;;;;;;;;;67.00;55.00;;;;;;;;5031119;28;8792;-76
2022/12/19 20:16:46;;;;;;;;;74.00;56.67;;;;;;;;5046762;28;8820;-77
2022/12/19 20:19:14;;;;;;;;;67.00;54.33;;;;;;;;5027901;28;8822;-79
2022/12/19 20:21:39;;;;;;;;;69.00;54.33;;;;;;;;5030777;28;8854;-81
2022/12/19 20:24:05;;;;;;;;;61.67;52.00;;;;;;;;5027216;28;8839;-79
2022/12/19 20:26:30;;;;;;;;;58.67;47.33;;;;;;;;5027603;28;8807;-76
2022/12/19 20:28:55;;;;;;;;;66.67;56.00;;;;;;;;5030894;28;8827;-75
2022/12/19 20:31:21;;;;;;;;;72.00;59.33;;;;;;;;5030835;28;8807;-76
2022/12/19 20:33:47;;;;;;;;;68.33;55.67;;;;;;;;5029787;28;8800;-79
2022/12/19 20:36:12;;;;;;;;;69.67;53.67;;;;;;;;5029863;28;8808;-78
2022/12/19 20:38:38;;;;;;;;;66.33;52.00;;;;;;;;5032848;28;8812;-75
2022/12/19 20:41:03;;;;;;;;;63.33;54.33;;;;;;;;5030498;28;9646;-76
2022/12/19 20:43:29;;;;;;;;;68.33;53.67;;;;;;;;5031598;28;8839;-80
2022/12/19 20:46:02;;;;;;;;;70.00;56.33;;;;;;;;5030498;28;8792;-76
2022/12/19 20:48:27;;;;;;;;;37.33;35.67;;;;;;;;5028229;28;8811;-85
2022/12/19 20:50:56;;;;;;;;;67.33;51.33;;;;;;;;5030573;28;8800;-82
2022/12/19 20:53:22;;;;;;;;;73.00;58.67;;;;;;;;5027191;28;8866;-82
2022/12/19 20:55:51;;;;;;;;;74.67;59.33;;;;;;;;5030291;28;8800;-82
2022/12/19 20:58:17;;;;;;;;;66.33;55.67;;;;;;;;5030241;28;8913;-81
2022/12/19 21:00:42;;;;;;;;;77.67;60.33;;;;;;;;5030630;28;8792;-81
2022/12/19 21:03:07;;;;;;;;;39.33;30.33;;;;;;;;5040308;28;8820;-81
2022/12/19 21:05:32;;;;;;;;;68.67;54.33;;;;;;;;5028412;28;8950;-86
2022/12/19 21:07:58;;;;;;;;;76.33;59.33;;;;;;;;5027262;28;8896;-80
2022/12/19 21:10:23;;;;;;;;;78.00;58.33;;;;;;;;5030480;28;8847;-81
2022/12/19 21:12:48;;;;;;;;;73.33;57.00;;;;;;;;5028156;28;9451;-85
2022/12/19 21:15:14;;;;;;;;;77.33;59.00;;;;;;;;5029910;28;8852;-83
2022/12/19 21:17:39;;;;;;;;;66.33;47.33;;;;;;;;5030096;28;8859;-85
2022/12/19 21:20:05;;;;;;;;;70.33;56.00;;;;;;;;5031257;28;8819;-81
2022/12/19 21:22:30;;;;;;;;;73.33;59.00;;;;;;;;5031112;28;8815;-84
2022/12/19 21:24:55;;;;;;;;;69.33;54.33;;;;;;;;5046323;28;8833;-84
2022/12/19 21:27:20;;;;;;;;;73.67;56.00;;;;;;;;5030924;28;8816;-85
2022/12/19 21:29:46;;;;;;;;;80.33;61.33;;;;;;;;5031986;28;8910;-80
2022/12/19 21:32:11;;;;;;;;;70.33;58.00;;;;;;;;5032034;28;8808;-83
2022/12/19 21:34:36;;;;;;;;;72.33;59.00;;;;;;;;5044824;28;8844;-81
2022/12/19 21:37:01;;;;;;;;;69.33;55.00;;;;;;;;5050278;28;8836;-80
2022/12/19 21:39:27;;;;;;;;;71.33;56.33;;;;;;;;5050758;28;8805;-78
2022/12/19 21:41:52;;;;;;;;;62.67;49.00;;;;;;;;5050656;28;8820;-81
2022/12/19 21:44:17;;;;;;;;;63.67;52.33;;;;;;;;5034588;28;8862;-84
2022/12/19 21:46:43;;;;;;;;;51.00;43.67;;;;;;;;5030438;28;8812;-85
2022/12/19 21:49:08;;;;;;;;;67.67;53.00;;;;;;;;5029827;28;8824;-86
2022/12/19 21:51:33;;;;;;;;;68.33;57.67;;;;;;;;5030946;28;8949;-80
2022/12/19 21:54:00;;;;;;;;;61.33;51.67;;;;;;;;5029392;28;8824;-85
2022/12/19 21:56:27;;;;;;;;;66.00;55.33;;;;;;;;5030484;28;8858;-84
2022/12/19 21:58:53;;;;;;;;;63.67;50.00;;;;;;;;5030614;28;8812;-86
2022/12/19 22:01:19;;;;;;;;;62.00;50.67;;;;;;;;5030557;28;8796;-85
2022/12/19 22:03:44;;;;;;;;;61.33;48.33;;;;;;;;5028184;28;8847;-84
2022/12/19 22:06:30;;;;;;;;;61.00;49.00;;;;;;;;5025435;28;8957;-83
2022/12/19 22:08:56;;;;;;;;;61.00;50.67;;;;;;;;5010780;28;8808;-85
2022/12/19 22:11:21;;;;;;;;;67.67;49.33;;;;;;;;5011004;28;8811;-84
2022/12/19 22:13:47;;;;;;;;;61.67;48.67;;;;;;;;5034707;28;8839;-83
2022/12/19 22:16:13;;;;;;;;;58.00;48.67;;;;;;;;5030834;28;8816;-84
2022/12/19 22:18:39;;;;;;;;;59.33;49.67;;;;;;;;5029388;28;8816;-82
2022/12/19 22:21:04;;;;;;;;;63.00;52.00;;;;;;;;5045619;28;9562;-79
2022/12/19 22:23:30;;;;;;;;;62.00;49.67;;;;;;;;5043996;28;8836;-81
2022/12/19 22:25:59;;;;;;;;;63.00;52.00;;;;;;;;5036440;28;8832;-85
2022/12/19 22:28:24;;;;;;;;;66.00;52.00;;;;;;;;5050322;28;8832;-77
2022/12/19 22:30:50;;;;;;;;;64.33;52.00;;;;;;;;5050068;28;8797;-82
2022/12/19 22:33:15;;;;;;;;;69.67;55.67;;;;;;;;5042034;28;8819;-83
2022/12/19 22:35:40;;;;;;;;;68.67;55.67;;;;;;;;5025692;28;8827;-81
2022/12/19 22:38:08;;;;;;;;;69.33;56.67;;;;;;;;5010577;28;9543;-80
2022/12/19 22:40:33;;;;;;;;;68.67;57.33;;;;;;;;5010983;28;8798;-81
2022/12/19 22:42:59;;;;;;;;;68.67;56.33;;;;;;;;5011981;28;8851;-83
2022/12/19 22:45:24;;;;;;;;;74.33;61.00;;;;;;;;5028843;28;10022;-81
2022/12/19 22:47:49;;;;;;;;;75.00;61.00;;;;;;;;5049827;28;8813;-81
2022/12/19 22:50:15;;;;;;;;;70.33;57.67;;;;;;;;5049898;28;8817;-81
2022/12/19 22:52:40;;;;;;;;;78.33;61.00;;;;;;;;5050080;28;8808;-87
2022/12/19 22:55:05;;;;;;;;;78.00;63.67;;;;;;;;5065497;28;8825;-83
2022/12/19 22:57:31;;;;;;;;;76.25;61.50;;;;;;;;5050287;28;8819;-87
2022/12/19 22:59:56;;;;;;;;;80.00;64.25;;;;;;;;5050300;28;8804;-82
2022/12/19 23:02:21;;;;;;;;;84.75;66.00;;;;;;;;5050231;28;8789;-80
2022/12/19 23:04:47;;;;;;;;;80.75;65.50;;;;;;;;5074899;28;8811;-83
2022/12/19 23:07:12;;;;;;;;;85.00;64.00;;;;;;;;5033959;28;8838;-80
2022/12/19 23:09:37;;;;;;;;;85.50;68.25;;;;;;;;5034288;28;8791;-81
2022/12/19 23:12:02;;;;;;;;;87.50;68.00;;;;;;;;5034326;28;8808;-81
2022/12/19 23:14:28;;;;;;;;;82.25;64.25;;;;;;;;5034250;28;9009;-81
2022/12/19 23:16:53;;;;;;;;;84.50;65.75;;;;;;;;5034231;28;8816;-81
2022/12/19 23:19:18;;;;;;;;;91.25;68.25;;;;;;;;5048427;28;8793;-81
2022/12/19 23:21:44;;;;;;;;;83.75;65.00;;;;;;;;5054073;28;8817;-81
2022/12/19 23:24:10;;;;;;;;;86.25;66.25;;;;;;;;5053564;28;8804;-81
2022/12/19 23:26:35;;;;;;;;;83.00;65.25;;;;;;;;5054501;28;8801;-82
2022/12/19 23:29:03;;;;;;;;;82.00;67.00;;;;;;;;5054319;28;8794;-81
2022/12/19 23:31:31;;;;;;;;;79.00;61.67;;;;;;;;5053657;28;8778;-81
2022/12/19 23:33:56;;;;;;;;;85.25;65.50;;;;;;;;5053631;28;8808;-81
2022/12/19 23:36:28;;;;;;;;;80.00;64.33;;;;;;;;5053812;28;8990;-81
2022/12/19 23:38:54;;;;;;;;;84.00;66.33;;;;;;;;5053695;28;8817;-81
2022/12/19 23:41:19;;;;;;;;;53.25;40.50;;;;;;;;5053519;28;8800;-81
2022/12/19 23:43:44;;;;;;;;;85.67;63.00;;;;;;;;5053940;28;8866;-80
2022/12/19 23:46:15;;;;;;;;;78.00;62.33;;;;;;;;5053683;28;8835;-80
2022/12/19 23:48:40;;;;;;;;;86.75;67.00;;;;;;;;5052291;28;8820;-80
2022/12/19 23:51:07;;;;;;;;;77.25;64.00;;;;;;;;5053470;28;8821;-81
2022/12/19 23:53:33;;;;;;;;;85.00;64.25;;;;;;;;5053202;28;8837;-80
2022/12/19 23:56:00;;;;;;;;;78.00;63.00;;;;;;;;5068837;28;8882;-80
2022/12/19 23:58:25;;;;;;;;;82.00;64.67;;;;;;;;5052859;28;8801;-81
